Time;durP1;ratioP1;P1;durP2;ratioP2;P2;SDS_P1;SDS_P2;PMS_P1;PMS_P2;Temp;Humidity;BMP_temperature;BMP_pressure;BME280_temperature;BME280_humidity;BME280_pressure;Samples;Min_cycle;Max_cycle;Signal;HPM_P1;HPM_P2
2024/04/20 00:00:56;;;;;;;2.43;2.00;;;6.40;1.00;;;;;;5382846;26;20250;-81
2024/04/20 00:03:25;;;;;;;4.53;2.60;;;6.40;1.00;;;;;;5381259;26;20226;-80
2024/04/20 00:05:53;;;;;;;2.73;2.10;;;6.40;1.00;;;;;;5382781;26;20288;-80
2024/04/20 00:08:22;;;;;;;2.80;2.53;;;6.40;1.00;;;;;;5383726;26;20280;-81
2024/04/20 00:10:53;;;;;;;2.83;2.60;;;6.40;1.00;;;;;;5373298;26;20290;-80
2024/04/20 00:13:21;;;;;;;2.70;2.07;;;6.40;1.00;;;;;;5379027;26;20233;-80
2024/04/20 00:15:50;;;;;;;2.63;2.20;;;6.30;1.00;;;;;;5367709;26;20283;-83
2024/04/20 00:18:19;;;;;;;2.63;2.10;;;6.30;1.00;;;;;;5381592;26;20728;-81
2024/04/20 00:20:47;;;;;;;2.77;2.30;;;6.30;1.00;;;;;;5378105;26;20238;-84
2024/04/20 00:23:16;;;;;;;2.30;2.10;;;6.30;1.00;;;;;;5378722;26;20292;-81
2024/04/20 00:25:44;;;;;;;2.90;2.30;;;6.30;1.00;;;;;;5379869;26;20326;-81
2024/04/20 00:28:16;;;;;;;2.73;2.53;;;6.20;1.00;;;;;;5383827;26;20276;-80
2024/04/20 00:30:45;;;;;;;3.00;2.60;;;6.30;99.90;;;;;;5383408;26;20260;-80
2024/04/20 00:33:13;;;;;;;2.30;2.10;;;6.30;1.00;;;;;;5377980;26;20234;-80
2024/04/20 00:35:42;;;;;;;4.93;2.83;;;6.30;1.00;;;;;;5382670;26;20284;-80
2024/04/20 00:38:11;;;;;;;2.83;2.53;;;6.20;99.90;;;;;;5376468;26;20721;-79
2024/04/20 00:40:39;;;;;;;2.93;2.47;;;6.30;1.00;;;;;;5369816;26;20272;-80
2024/04/20 00:43:08;;;;;;;3.90;3.40;;;6.20;99.90;;;;;;5382793;26;20234;-80
2024/04/20 00:45:39;;;;;;;6.70;2.83;;;6.20;99.90;;;;;;5382940;26;20238;-81
2024/04/20 00:48:08;;;;;;;2.87;2.57;;;6.20;1.00;;;;;;5379985;26;20623;-81
2024/04/20 00:50:37;;;;;;;3.10;2.77;;;6.20;1.00;;;;;;5383468;26;20292;-81
2024/04/20 00:53:07;;;;;;;3.03;2.50;;;6.20;1.00;;;;;;5372491;26;20633;-81
2024/04/20 00:55:37;;;;;;;3.60;3.00;;;6.20;1.00;;;;;;5383232;26;20226;-80
2024/04/20 00:58:08;;;;;;;3.90;2.93;;;6.20;1.00;;;;;;5374492;26;20249;-81
2024/04/20 01:00:41;;;;;;;3.50;2.73;;;6.20;1.00;;;;;;5383188;26;20654;-79
2024/04/20 01:03:10;;;;;;;2.93;2.67;;;6.20;1.00;;;;;;5375548;26;20273;-82
2024/04/20 01:05:40;;;;;;;4.13;3.10;;;6.20;1.00;;;;;;5379599;26;20239;-81
2024/04/20 01:08:09;;;;;;;5.67;3.13;;;6.10;1.00;;;;;;5379598;26;20233;-81
2024/04/20 01:10:39;;;;;;;3.50;3.00;;;6.20;1.00;;;;;;5370330;26;20242;-81
2024/04/20 01:13:09;;;;;;;3.67;2.53;;;6.10;1.00;;;;;;5382284;26;20233;-81
2024/04/20 01:15:40;;;;;;;3.20;2.90;;;6.20;1.00;;;;;;5377950;26;20242;-79
2024/04/20 01:18:09;;;;;;;4.13;3.10;;;6.10;1.00;;;;;;5376133;26;20229;-80
2024/04/20 01:20:38;;;;;;;3.30;3.00;;;6.10;1.00;;;;;;5383059;26;20249;-81
2024/04/20 01:23:07;;;;;;;4.30;3.10;;;6.10;1.00;;;;;;5382928;26;20276;-81
2024/04/20 01:25:36;;;;;;;3.50;3.00;;;6.10;1.00;;;;;;5383367;26;20276;-80
2024/04/20 01:28:07;;;;;;;4.03;3.00;;;6.10;1.00;;;;;;5383373;26;20245;-82
2024/04/20 01:30:36;;;;;;;6.00;4.07;;;6.10;1.00;;;;;;5383639;26;20719;-81
2024/04/20 01:33:05;;;;;;;4.37;3.63;;;6.10;1.00;;;;;;5372859;26;20246;-81
2024/04/20 01:35:33;;;;;;;5.77;3.90;;;6.00;99.90;;;;;;5382555;26;21042;-81
2024/04/20 01:38:02;;;;;;;4.70;3.77;;;6.10;1.00;;;;;;5375871;26;20233;-80
2024/04/20 01:40:31;;;;;;;5.57;3.67;;;6.00;1.00;;;;;;5379081;26;20272;-83
2024/04/20 01:42:59;;;;;;;4.00;3.37;;;6.00;1.00;;;;;;5385891;26;20297;-82
2024/04/20 01:45:30;;;;;;;5.87;3.77;;;6.10;1.00;;;;;;5384257;26;20284;-80
2024/04/20 01:47:59;;;;;;;5.23;4.10;;;6.00;1.00;;;;;;5384670;26;20300;-81
2024/04/20 01:50:28;;;;;;;6.03;3.80;;;6.00;1.00;;;;;;5386568;26;20241;-81
2024/04/20 01:52:56;;;;;;;5.20;3.93;;;6.10;1.00;;;;;;5380646;26;20241;-80
2024/04/20 01:55:25;;;;;;;4.97;3.73;;;6.00;1.00;;;;;;5376598;26;20246;-82
2024/04/20 01:57:54;;;;;;;4.73;3.50;;;6.00;1.00;;;;;;5383195;26;20253;-81
2024/04/20 02:00:22;;;;;;;4.40;3.40;;;6.00;1.00;;;;;;5377625;26;20288;-82
2024/04/20 02:02:53;;;;;;;5.07;3.50;;;6.00;1.00;;;;;;5378208;26;20275;-81
2024/04/20 02:05:22;;;;;;;4.87;3.33;;;6.00;99.90;;;;;;5395762;26;20283;-80
2024/04/20 02:07:52;;;;;;;4.27;3.20;;;6.00;99.90;;;;;;5382224;26;20246;-80
2024/04/20 02:10:21;;;;;;;5.43;3.20;;;6.00;99.90;;;;;;5387020;26;20225;-79
2024/04/20 02:12:49;;;;;;;5.67;3.23;;;6.00;99.90;;;;;;5375858;26;20241;-81
2024/04/20 02:15:18;;;;;;;4.57;3.30;;;6.00;99.90;;;;;;5379087;26;20284;-81
2024/04/20 02:17:47;;;;;;;3.30;3.00;;;5.90;99.90;;;;;;5385886;26;20250;-81
2024/04/20 02:20:18;;;;;;;5.03;3.20;;;5.90;99.90;;;;;;5385097;26;20246;-79
2024/04/20 02:22:47;;;;;;;6.43;3.30;;;5.90;99.90;;;;;;5382597;26;20618;-81
2024/04/20 02:25:15;;;;;;;2.90;2.60;;;5.90;56.70;;;;;;5385267;26;20280;-81
2024/04/20 02:27:44;;;;;;;4.23;3.00;;;5.90;36.60;;;;;;5384615;26;20933;-80
2024/04/20 02:30:12;;;;;;;4.33;3.10;;;5.80;1.00;;;;;;5386029;26;20280;-81
2024/04/20 02:32:41;;;;;;;4.43;2.97;;;5.80;1.00;;;;;;5380400;26;20767;-81
2024/04/20 02:35:10;;;;;;;4.63;2.77;;;5.80;1.00;;;;;;5375485;26;20233;-82
2024/04/20 02:37:41;;;;;;;4.37;2.50;;;5.80;1.00;;;;;;5382447;26;20245;-81
2024/04/20 02:40:11;;;;;;;6.73;2.90;;;5.70;1.00;;;;;;5375378;26;20233;-81
2024/04/20 02:42:39;;;;;;;2.80;2.37;;;5.80;1.00;;;;;;5383981;26;20250;-80
2024/04/20 02:45:15;;;;;;;4.17;2.73;;;5.70;1.00;;;;;;5373287;26;20229;-83
2024/04/20 02:47:44;;;;;;;5.13;2.57;;;5.70;1.00;;;;;;5383001;26;20257;-83
2024/04/20 02:50:12;;;;;;;4.80;2.80;;;5.70;1.00;;;;;;5370519;26;20802;-83
2024/04/20 02:52:43;;;;;;;4.87;2.83;;;5.70;1.00;;;;;;5383912;26;20241;-81
2024/04/20 02:55:12;;;;;;;3.17;2.47;;;5.70;1.00;;;;;;5380909;26;20280;-81
2024/04/20 02:57:41;;;;;;;4.13;2.87;;;5.70;1.00;;;;;;5374466;26;20249;-80
2024/04/20 03:00:10;;;;;;;3.93;2.80;;;5.70;1.00;;;;;;5381574;26;20284;-80
2024/04/20 03:02:39;;;;;;;3.00;2.33;;;5.70;1.00;;;;;;5383915;26;20276;-80
2024/04/20 03:05:08;;;;;;;3.17;2.43;;;5.70;1.00;;;;;;5382406;26;20284;-80
2024/04/20 03:07:36;;;;;;;3.50;2.77;;;5.60;1.00;;;;;;5384712;26;20280;-80
2024/04/20 03:10:08;;;;;;;3.73;3.00;;;5.70;1.00;;;;;;5381209;26;20241;-79
2024/04/20 03:12:37;;;;;;;2.77;2.30;;;5.70;1.00;;;;;;5378939;26;20286;-81
2024/04/20 03:15:06;;;;;;;4.60;2.80;;;5.70;1.00;;;;;;5373189;26;20320;-80
2024/04/20 03:17:35;;;;;;;3.87;2.93;;;5.60;1.00;;;;;;5394050;26;20288;-82
2024/04/20 03:20:03;;;;;;;3.77;2.67;;;5.60;1.00;;;;;;5371807;26;20361;-82
2024/04/20 03:22:32;;;;;;;3.77;2.63;;;5.60;1.00;;;;;;5382442;26;20245;-79
2024/04/20 03:25:03;;;;;;;3.40;2.73;;;5.60;1.00;;;;;;5377175;26;20242;-79
2024/04/20 03:27:34;;;;;;;4.67;3.00;;;5.60;1.00;;;;;;5375378;26;20288;-80
2024/04/20 03:30:00;;;;;;;4.83;2.80;;;5.50;1.00;;;;;;5375109;26;20234;-80
2024/04/20 03:32:29;;;;;;;4.37;2.70;;;5.50;1.00;;;;;;5373178;26;20751;-80
2024/04/20 03:34:59;;;;;;;4.53;2.97;;;5.60;1.00;;;;;;5367661;26;20241;-78
2024/04/20 03:37:28;;;;;;;2.83;2.57;;;5.50;1.00;;;;;;5367348;26;20284;-81
2024/04/20 03:39:58;;;;;;;4.07;3.00;;;5.50;1.00;;;;;;5377434;26;20245;-80
2024/04/20 03:42:30;;;;;;;5.27;2.70;;;5.50;1.00;;;;;;5366361;26;20288;-80
2024/04/20 03:45:02;;;;;;;3.07;2.40;;;5.50;1.00;;;;;;5361410;26;20299;-79
2024/04/20 03:47:30;;;;;;;3.33;2.63;;;5.50;1.00;;;;;;5376098;26;20559;-79
2024/04/20 03:49:59;;;;;;;4.23;2.67;;;5.40;99.90;;;;;;5368099;26;20237;-80
2024/04/20 03:52:35;;;;;;;5.97;2.70;;;5.50;99.90;;;;;;5368261;26;20250;-80
2024/04/20 03:55:09;;;;;;;3.20;2.87;;;5.40;99.90;;;;;;5370639;26;20811;-79
2024/04/20 03:57:38;;;;;;;3.23;2.60;;;5.40;99.90;;;;;;5373003;26;20344;-81
2024/04/20 04:00:11;;;;;;;2.60;2.30;;;5.40;99.90;;;;;;5373099;26;20283;-80
2024/04/20 04:02:40;;;;;;;6.53;2.90;;;5.30;99.90;;;;;;5379854;26;20250;-81
2024/04/20 04:05:06;;;;;;;3.70;2.30;;;5.40;1.00;;;;;;5378891;26;20237;-82
2024/04/20 04:07:35;;;;;;;4.20;2.60;;;5.30;99.90;;;;;;5376388;26;20775;-81
2024/04/20 04:10:03;;;;;;;3.77;2.73;;;5.30;99.90;;;;;;5367384;26;20254;-81
2024/04/20 04:12:32;;;;;;;3.97;2.90;;;5.30;99.90;;;;;;5376558;26;20241;-80
2024/04/20 04:15:01;;;;;;;3.60;3.00;;;5.30;99.90;;;;;;5374256;26;20291;-80
2024/04/20 04:17:35;;;;;;;3.97;2.80;;;5.30;99.90;;;;;;5371085;26;20246;-81
2024/04/20 04:20:04;;;;;;;3.43;2.37;;;5.20;1.00;;;;;;5362050;26;20245;-81
2024/04/20 04:22:33;;;;;;;2.60;2.13;;;5.20;1.00;;;;;;5378834;26;20250;-81
2024/04/20 04:25:02;;;;;;;4.03;2.90;;;5.30;1.00;;;;;;5360253;26;20624;-81
2024/04/20 04:27:32;;;;;;;3.47;2.40;;;5.50;99.90;;;;;;5368064;26;20641;-80
2024/04/20 04:30:00;;;;;;;2.40;2.20;;;5.60;99.90;;;;;;5373732;26;20250;-81
2024/04/20 04:32:34;;;;;;;4.37;2.53;;;5.40;99.90;;;;;;5382402;26;20264;-81
2024/04/20 04:35:03;;;;;;;4.53;2.60;;;5.20;99.90;;;;;;5363014;26;20234;-81
2024/04/20 04:37:32;;;;;;;3.10;2.50;;;5.20;99.90;;;;;;5380385;26;20371;-82
2024/04/20 04:40:01;;;;;;;3.10;2.37;;;5.20;1.00;;;;;;5368914;26;20624;-82
2024/04/20 04:42:31;;;;;;;4.10;2.30;;;5.10;1.00;;;;;;5384815;26;20253;-82
2024/04/20 04:45:00;;;;;;;3.67;2.57;;;5.10;1.00;;;;;;5378368;26;20234;-82
2024/04/20 04:47:33;;;;;;;4.00;2.30;;;5.10;1.00;;;;;;5386076;26;20258;-82
2024/04/20 04:50:02;;;;;;;3.77;2.40;;;5.10;1.00;;;;;;5369251;26;20636;-82
2024/04/20 04:52:32;;;;;;;3.37;2.40;;;5.10;1.00;;;;;;5381020;26;20246;-82
2024/04/20 04:55:00;;;;;;;3.70;2.50;;;5.10;1.00;;;;;;5380367;26;20253;-82
2024/04/20 04:57:29;;;;;;;2.40;2.07;;;5.20;1.00;;;;;;5374303;26;20249;-81
2024/04/20 04:59:58;;;;;;;4.30;2.47;;;5.10;1.00;;;;;;5377442;26;20739;-81
2024/04/20 05:02:26;;;;;;;2.87;2.20;;;5.20;1.00;;;;;;5367617;26;20234;-82
2024/04/20 05:04:58;;;;;;;4.37;2.57;;;5.20;1.00;;;;;;5372840;26;20239;-82
2024/04/20 05:07:28;;;;;;;3.20;2.30;;;5.30;1.00;;;;;;5378574;26;20268;-82
2024/04/20 05:09:58;;;;;;;2.57;2.10;;;5.40;1.00;;;;;;5377592;26;20257;-81
2024/04/20 05:12:27;;;;;;;3.27;2.23;;;5.20;1.00;;;;;;5378487;26;20330;-81
2024/04/20 05:14:56;;;;;;;3.20;2.00;;;5.30;1.00;;;;;;5378822;26;20249;-81
2024/04/20 05:17:25;;;;;;;3.53;2.33;;;5.50;1.00;;;;;;5374424;26;20874;-81
2024/04/20 05:19:59;;;;;;;3.60;1.93;;;5.40;1.00;;;;;;5371278;26;20237;-82
2024/04/20 05:22:27;;;;;;;3.53;2.57;;;5.40;1.00;;;;;;5370915;26;20258;-82
2024/04/20 05:24:56;;;;;;;4.57;2.03;;;5.40;1.00;;;;;;5369208;26;20237;-81
2024/04/20 05:27:28;;;;;;;2.50;2.07;;;5.40;1.00;;;;;;5364954;26;20253;-81
2024/04/20 05:29:56;;;;;;;2.93;1.83;;;5.40;1.00;;;;;;5376829;26;20238;-80
2024/04/20 05:32:25;;;;;;;1.70;1.60;;;5.50;1.00;;;;;;5373890;26;20597;-81
2024/04/20 05:34:53;;;;;;;2.77;2.07;;;5.60;1.00;;;;;;5363099;26;20301;-81
2024/04/20 05:37:25;;;;;;;2.93;2.07;;;5.60;1.00;;;;;;5379333;26;20284;-81
2024/04/20 05:39:53;;;;;;;1.93;1.70;;;5.70;1.00;;;;;;5378909;26;20237;-81
2024/04/20 05:42:25;;;;;;;2.23;1.90;;;5.60;99.90;;;;;;5365991;26;20310;-81
2024/04/20 05:44:55;;;;;;;4.33;2.27;;;5.90;99.90;;;;;;5371977;26;20733;-82
2024/04/20 05:47:24;;;;;;;4.00;2.10;;;5.80;99.90;;;;;;5371813;26;20249;-83
2024/04/20 05:49:53;;;;;;;2.40;1.73;;;5.80;92.10;;;;;;5377092;26;20321;-82
2024/04/20 05:52:28;;;;;;;2.40;2.10;;;5.70;1.00;;;;;;5374183;26;20261;-81
2024/04/20 05:54:57;;;;;;;4.23;2.37;;;5.80;1.00;;;;;;5371467;26;20291;-81
2024/04/20 05:57:25;;;;;;;1.67;1.53;;;5.90;1.00;;;;;;5374319;26;20238;-80
2024/04/20 05:59:54;;;;;;;2.40;1.50;;;5.70;1.00;;;;;;5369605;26;20239;-82
2024/04/20 06:02:24;;;;;;;1.60;1.50;;;6.00;1.00;;;;;;5369650;26;20250;-82
2024/04/20 06:04:53;;;;;;;1.97;1.50;;;6.00;1.00;;;;;;5372380;26;20235;-80
2024/04/20 06:07:25;;;;;;;2.63;2.00;;;5.90;1.00;;;;;;5370512;26;20265;-82
2024/04/20 06:09:53;;;;;;;2.80;1.70;;;5.80;1.00;;;;;;5381820;26;20238;-81
2024/04/20 06:12:22;;;;;;;3.87;1.83;;;5.80;1.00;;;;;;5373569;26;20230;-82
2024/04/20 06:14:53;;;;;;;2.33;1.80;;;5.60;1.00;;;;;;5378184;26;20238;-82
2024/04/20 06:17:21;;;;;;;2.50;1.77;;;5.60;1.00;;;;;;5365502;26;20258;-81
2024/04/20 06:19:50;;;;;;;2.00;1.80;;;5.70;1.00;;;;;;5381726;26;20234;-80
2024/04/20 06:22:19;;;;;;;2.23;1.70;;;6.20;1.00;;;;;;5371670;26;20249;-81
2024/04/20 06:24:53;;;;;;;3.13;1.90;;;7.30;99.90;;;;;;5378136;26;20254;-83
2024/04/20 06:27:22;;;;;;;1.63;1.53;;;7.80;99.90;;;;;;5382925;26;20362;-81
2024/04/20 06:29:51;;;;;;;1.60;1.50;;;9.10;1.00;;;;;;5381707;26;20249;-82
2024/04/20 06:32:19;;;;;;;1.93;1.60;;;8.80;1.00;;;;;;5374936;26;20360;-82
2024/04/20 06:34:51;;;;;;;2.37;1.60;;;10.00;1.00;;;;;;5383265;26;20272;-82
2024/04/20 06:37:21;;;;;;;1.40;1.30;;;9.20;1.00;;;;;;5377247;26;20300;-81
2024/04/20 06:39:52;;;;;;;2.57;2.37;;;9.00;1.00;;;;;;5383013;26;20284;-82
2024/04/20 06:42:21;;;;;;;2.00;1.60;;;8.60;99.90;;;;;;5378899;26;20276;-81
2024/04/20 06:44:52;;;;;;;2.43;1.90;;;8.10;1.00;;;;;;5385615;26;20233;-82
2024/04/20 06:47:23;;;;;;;2.40;1.60;;;8.00;1.00;;;;;;5377999;26;20288;-80
2024/04/20 06:49:55;;;;;;;3.87;2.43;;;8.30;1.00;;;;;;5382522;26;20249;-82
2024/04/20 06:52:24;;;;;;;4.20;2.03;;;9.30;99.90;;;;;;5375576;26;20249;-82
2024/04/20 06:54:56;;;;;;;1.70;1.60;;;9.00;99.90;;;;;;5384473;26;20443;-81
2024/04/20 06:57:25;;;;;;;3.17;1.50;;;8.60;99.90;;;;;;5376144;26;20732;-81
2024/04/20 06:59:54;;;;;;;4.70;1.83;;;8.20;99.90;;;;;;5385515;26;20650;-80
2024/04/20 07:02:22;;;;;;;2.53;1.80;;;8.50;99.90;;;;;;5367823;26;20261;-80
2024/04/20 07:04:56;;;;;;;1.73;1.63;;;8.70;99.90;;;;;;5379403;26;20243;-79
2024/04/20 07:07:24;;;;;;;5.00;1.97;;;7.70;99.90;;;;;;5383225;26;20246;-81
2024/04/20 07:09:58;;;;;;;2.10;1.77;;;8.10;99.90;;;;;;5383163;26;20253;-81
2024/04/20 07:12:27;;;;;;;3.07;2.03;;;9.00;99.90;;;;;;5383169;26;20260;-80
2024/04/20 07:14:58;;;;;;;1.90;1.40;;;8.30;99.90;;;;;;5377600;26;20925;-83
2024/04/20 07:17:27;;;;;;;2.90;2.10;;;9.40;99.90;;;;;;5378824;26;20246;-82
2024/04/20 07:19:57;;;;;;;3.03;1.83;;;8.60;99.90;;;;;;5384864;26;20268;-81
2024/04/20 07:22:25;;;;;;;3.47;1.90;;;8.60;99.90;;;;;;5383250;26;20261;-81
2024/04/20 07:24:55;;;;;;;3.30;1.97;;;8.80;99.90;;;;;;5382466;26;20284;-81
2024/04/20 07:27:27;;;;;;;4.43;2.07;;;8.30;99.90;;;;;;5381733;26;20249;-80
2024/04/20 07:29:57;;;;;;;2.60;1.87;;;8.90;99.90;;;;;;5383414;26;20272;-80
2024/04/20 07:32:27;;;;;;;2.00;1.77;;;8.30;99.90;;;;;;5383321;26;20259;-81
2024/04/20 07:34:57;;;;;;;2.30;1.63;;;8.20;99.90;;;;;;5381897;26;20268;-81
2024/04/20 07:37:26;;;;;;;3.00;1.80;;;8.10;99.90;;;;;;5383469;26;20682;-81
2024/04/20 07:39:58;;;;;;;2.13;1.53;;;8.40;99.90;;;;;;5383528;26;20280;-82
2024/04/20 07:42:29;;;;;;;3.17;2.00;;;8.50;99.90;;;;;;5375335;26;20285;-82
2024/04/20 07:45:01;;;;;;;1.63;1.53;;;8.40;99.90;;;;;;5381442;26;20253;-82
2024/04/20 07:47:30;;;;;;;2.07;1.87;;;8.10;99.90;;;;;;5383668;26;20292;-81
2024/04/20 07:49:59;;;;;;;2.33;1.90;;;8.30;99.90;;;;;;5384004;26;20296;-81
2024/04/20 07:52:27;;;;;;;2.70;2.00;;;8.60;99.90;;;;;;5384231;26;20375;-81
2024/04/20 07:54:56;;;;;;;2.20;1.80;;;8.50;99.90;;;;;;5383440;26;20572;-81
2024/04/20 07:57:25;;;;;;;2.20;1.60;;;8.40;99.90;;;;;;5375512;26;20288;-82
2024/04/20 07:59:57;;;;;;;1.90;1.60;;;8.30;99.90;;;;;;5383747;26;20241;-82
2024/04/20 08:02:26;;;;;;;4.30;1.43;;;8.20;99.90;;;;;;5382932;26;20233;-84
2024/04/20 08:04:55;;;;;;;3.10;1.83;;;8.30;99.90;;;;;;5381242;26;20313;-82
2024/04/20 08:07:25;;;;;;;4.23;2.07;;;8.40;99.90;;;;;;5384629;26;20238;-80
2024/04/20 08:09:54;;;;;;;1.47;1.37;;;8.50;99.90;;;;;;5384331;26;20290;-81
2024/04/20 08:12:22;;;;;;;2.70;1.80;;;8.70;99.90;;;;;;5379612;26;21224;-80
2024/04/20 08:14:51;;;;;;;2.87;1.60;;;8.50;99.90;;;;;;5371865;26;20585;-79
2024/04/20 08:17:22;;;;;;;1.20;1.10;;;8.10;99.90;;;;;;5384003;26;20253;-81
2024/04/20 08:19:51;;;;;;;4.53;1.27;;;8.10;99.90;;;;;;5377251;26;20280;-80
2024/04/20 08:22:22;;;;;;;1.97;1.50;;;8.30;1.00;;;;;;5382834;26;20292;-82
2024/04/20 08:24:50;;;;;;;2.20;1.47;;;8.90;83.10;;;;;;5380765;26;20245;-81
2024/04/20 08:27:20;;;;;;;1.50;1.00;;;9.20;1.00;;;;;;5386262;26;20766;-83
2024/04/20 08:29:48;;;;;;;2.33;1.10;;;9.20;1.00;;;;;;5379990;26;20731;-83
2024/04/20 08:32:18;;;;;;;1.40;1.30;;;8.90;1.00;;;;;;5383294;26;20298;-82
2024/04/20 08:34:54;;;;;;;1.63;1.37;;;8.80;1.00;;;;;;5382312;26;20574;-82
2024/04/20 08:37:23;;;;;;;2.90;1.43;;;8.70;1.00;;;;;;5383361;26;20594;-82
2024/04/20 08:39:51;;;;;;;3.27;1.30;;;8.90;1.00;;;;;;5370389;26;20425;-82
2024/04/20 08:42:31;;;;;;;2.17;1.30;;;9.40;1.00;;;;;;5382181;26;20275;-81
2024/04/20 08:45:03;;;;;;;1.57;1.00;;;9.30;1.00;;;;;;5381746;26;20241;-80
2024/04/20 08:47:37;;;;;;;2.40;1.27;;;9.40;1.00;;;;;;5383205;26;20284;-81
2024/04/20 08:50:10;;;;;;;3.13;1.67;;;9.60;1.00;;;;;;5382947;26;20317;-81
2024/04/20 08:52:42;;;;;;;1.43;1.30;;;9.60;1.00;;;;;;5382751;26;20245;-78
2024/04/20 08:55:11;;;;;;;1.47;1.00;;;9.30;1.00;;;;;;5382513;26;20247;-81
2024/04/20 08:57:42;;;;;;;2.20;1.43;;;9.10;1.00;;;;;;5376496;26;20780;-80
2024/04/20 09:00:12;;;;;;;2.17;1.40;;;9.10;1.00;;;;;;5382752;26;20301;-83
2024/04/20 09:02:42;;;;;;;3.60;1.17;;;10.00;1.00;;;;;;5379909;26;20250;-80
2024/04/20 09:05:14;;;;;;;2.20;1.33;;;10.70;1.00;;;;;;5380403;26;20233;-81
2024/04/20 09:07:43;;;;;;;1.37;1.20;;;11.20;1.00;;;;;;5367755;26;20254;-82
2024/04/20 09:10:12;;;;;;;1.10;1.00;;;11.10;1.00;;;;;;5383928;26;20773;-84
2024/04/20 09:12:43;;;;;;;3.60;1.60;;;10.70;1.00;;;;;;5378294;26;20299;-81
2024/04/20 09:15:12;;;;;;;3.00;1.73;;;10.10;1.00;;;;;;5383839;26;20245;-82
2024/04/20 09:17:41;;;;;;;2.10;1.17;;;10.20;1.00;;;;;;5388739;26;20271;-82
2024/04/20 09:20:14;;;;;;;1.27;1.17;;;10.90;1.00;;;;;;5383900;26;20284;-82
2024/04/20 09:22:44;;;;;;;1.57;1.47;;;11.80;1.00;;;;;;5377881;26;20597;-83
2024/04/20 09:25:15;;;;;;;1.27;1.17;;;11.10;99.90;;;;;;5378891;26;20284;-81
2024/04/20 09:27:44;;;;;;;1.50;1.23;;;11.10;99.90;;;;;;5379696;26;20601;-80
2024/04/20 09:30:14;;;;;;;1.47;1.27;;;11.00;99.90;;;;;;5380533;26;20272;-81
2024/04/20 09:32:48;;;;;;;4.20;1.20;;;11.20;99.90;;;;;;5378421;26;20371;-82
2024/04/20 09:35:20;;;;;;;0.80;0.80;;;10.90;99.90;;;;;;5383710;26;20283;-82
2024/04/20 09:37:48;;;;;;;1.37;1.17;;;10.80;99.90;;;;;;5381712;26;20292;-81
2024/04/20 09:40:21;;;;;;;3.60;1.10;;;10.60;99.90;;;;;;5362207;26;20246;-83
2024/04/20 09:42:50;;;;;;;1.73;1.33;;;10.50;99.90;;;;;;5384112;26;20261;-83
2024/04/20 09:45:21;;;;;;;1.93;1.43;;;10.20;99.90;;;;;;5378396;26;20685;-81
2024/04/20 09:47:51;;;;;;;1.40;1.30;;;10.40;99.90;;;;;;5378664;26;20253;-82
2024/04/20 09:50:23;;;;;;;3.23;1.23;;;10.70;99.90;;;;;;5377273;26;20249;-81
2024/04/20 09:52:56;;;;;;;2.70;1.23;;;11.30;99.90;;;;;;5373555;26;20233;-81
2024/04/20 09:55:30;;;;;;;1.30;1.20;;;11.70;99.90;;;;;;5366524;26;20258;-82
2024/04/20 09:58:01;;;;;;;1.33;1.23;;;11.90;99.90;;;;;;5374632;26;20659;-82
2024/04/20 10:00:32;;;;;;;2.23;1.43;;;11.40;99.90;;;;;;5387633;26;20245;-82
2024/04/20 10:03:02;;;;;;;1.20;0.90;;;11.20;99.90;;;;;;5381100;26;20283;-81
2024/04/20 10:05:34;;;;;;;0.97;0.97;;;11.20;99.90;;;;;;5384446;26;20229;-83
2024/04/20 10:08:05;;;;;;;0.80;0.80;;;11.30;99.90;;;;;;5386154;26;20237;-82
2024/04/20 10:10:34;;;;;;;0.77;0.77;;;11.30;99.90;;;;;;5392049;26;20249;-82
2024/04/20 10:13:09;;;;;;;0.77;0.77;;;11.40;29.10;;;;;;5374851;26;20245;-80
2024/04/20 10:15:38;;;;;;;1.43;1.00;;;11.60;1.00;;;;;;5375053;26;20246;-78
2024/04/20 10:18:08;;;;;;;1.40;1.20;;;11.70;1.00;;;;;;5388018;26;20835;-80
2024/04/20 10:20:41;;;;;;;1.10;0.97;;;11.80;1.00;;;;;;5386285;26;20253;-80
2024/04/20 10:23:22;;;;;;;1.00;0.73;;;11.70;1.00;;;;;;5386724;26;20245;-84
2024/04/20 10:25:53;;;;;;;1.37;0.83;;;11.90;1.00;;;;;;5381080;26;20250;-83
2024/04/20 10:28:29;;;;;;;1.37;1.03;;;11.80;1.00;;;;;;5386746;26;20292;-81
2024/04/20 10:30:59;;;;;;;1.17;1.10;;;11.80;1.00;;;;;;5378481;26;20244;-81
2024/04/20 10:33:30;;;;;;;2.13;1.23;;;12.00;1.00;;;;;;5386865;26;20361;-82
2024/04/20 10:36:02;;;;;;;1.10;1.00;;;12.10;1.00;;;;;;5364310;26;20252;-82
2024/04/20 10:38:33;;;;;;;1.37;1.00;;;12.30;1.00;;;;;;5377522;26;20337;-82
2024/04/20 10:41:14;;;;;;;1.23;1.07;;;11.90;1.00;;;;;;5371228;26;20633;-79
2024/04/20 10:43:46;;;;;;;2.00;1.30;;;11.90;1.00;;;;;;5381438;26;20241;-83
2024/04/20 10:46:15;;;;;;;0.97;0.87;;;12.00;1.00;;;;;;5374900;26;20693;-82
2024/04/20 10:48:43;;;;;;;1.10;0.90;;;11.80;1.00;;;;;;5380312;26;20371;-81
2024/04/20 10:51:17;;;;;;;1.80;1.30;;;11.80;1.00;;;;;;5380058;26;20594;-81
2024/04/20 10:53:46;;;;;;;2.47;1.37;;;12.20;1.00;;;;;;5386095;26;20280;-81
2024/04/20 10:56:18;;;;;;;1.77;1.33;;;11.70;1.00;;;;;;5386049;26;20240;-81
2024/04/20 10:58:48;;;;;;;1.30;1.20;;;11.60;1.00;;;;;;5380832;26;20250;-82
2024/04/20 11:01:18;;;;;;;1.37;1.27;;;11.40;1.00;;;;;;5385115;26;20264;-80
2024/04/20 11:03:47;;;;;;;1.80;1.43;;;11.10;1.00;;;;;;5386976;26;20288;-82
2024/04/20 11:06:22;;;;;;;1.27;1.17;;;11.30;1.00;;;;;;5369700;26;20253;-82
2024/04/20 11:08:50;;;;;;;1.70;1.60;;;11.60;1.00;;;;;;5385466;26;20723;-82
2024/04/20 11:11:20;;;;;;;1.80;1.10;;;11.60;1.00;;;;;;5383429;26;20728;-80
2024/04/20 11:13:59;;;;;;;1.40;1.30;;;11.70;1.00;;;;;;5386024;26;20292;-83
2024/04/20 11:16:29;;;;;;;1.37;1.27;;;11.40;1.00;;;;;;5371047;26;20293;-82
2024/04/20 11:18:57;;;;;;;1.67;1.23;;;11.60;1.00;;;;;;5385473;26;20304;-82
2024/04/20 11:21:29;;;;;;;2.43;1.40;;;11.60;1.00;;;;;;5381882;26;20292;-82
2024/04/20 11:23:57;;;;;;;2.10;1.17;;;11.40;1.00;;;;;;5384799;26;20289;-83
2024/04/20 11:26:26;;;;;;;2.20;1.70;;;11.10;1.00;;;;;;5373929;26;20297;-82
2024/04/20 11:28:55;;;;;;;2.17;1.37;;;11.20;1.00;;;;;;5383927;26;20288;-81
2024/04/20 11:31:23;;;;;;;1.63;1.40;;;11.60;1.00;;;;;;5385858;26;20262;-81
2024/04/20 11:33:52;;;;;;;3.10;1.40;;;11.90;1.00;;;;;;5383949;26;20959;-82
2024/04/20 11:36:21;;;;;;;2.43;1.53;;;11.90;1.00;;;;;;5388052;26;20276;-81
2024/04/20 11:38:53;;;;;;;1.37;1.27;;;12.20;1.00;;;;;;5387156;26;20246;-82
2024/04/20 11:41:24;;;;;;;1.33;1.23;;;12.30;1.00;;;;;;5373859;26;20621;-82
2024/04/20 11:43:53;;;;;;;2.70;1.60;;;12.60;1.00;;;;;;5381305;26;20283;-82
2024/04/20 11:46:22;;;;;;;1.83;1.73;;;12.40;1.00;;;;;;5377470;26;20278;-80
2024/04/20 11:48:51;;;;;;;3.73;2.90;;;12.20;1.00;;;;;;5377491;26;20673;-78
2024/04/20 11:54:17;;;;;;;2.10;1.70;;;12.00;1.00;;;;;;5384655;26;20249;-82
2024/04/20 11:54:21;;;;;;;3.20;1.80;;;12.30;1.00;;;;;;5382472;26;20394;-81
2024/04/20 11:56:50;;;;;;;1.40;1.30;;;12.20;1.00;;;;;;5384932;26;20768;-81
2024/04/20 11:59:19;;;;;;;2.67;1.57;;;12.00;1.00;;;;;;5379352;26;20298;-80
2024/04/20 12:01:48;;;;;;;1.87;1.50;;;11.80;1.00;;;;;;5372250;26;20226;-79
2024/04/20 12:04:16;;;;;;;1.80;1.70;;;11.60;1.00;;;;;;5381291;26;20246;-82
2024/04/20 12:06:45;;;;;;;4.80;2.00;;;11.50;1.00;;;;;;5375701;26;20299;-80
2024/04/20 12:09:14;;;;;;;2.40;1.80;;;11.70;1.00;;;;;;5385685;26;20284;-81
2024/04/20 12:11:45;;;;;;;1.87;1.60;;;11.80;1.00;;;;;;5385245;26;20233;-81
2024/04/20 12:14:14;;;;;;;1.57;1.47;;;11.60;1.00;;;;;;5384973;26;20246;-80
2024/04/20 12:16:42;;;;;;;2.70;2.10;;;11.40;1.00;;;;;;5369562;26;20245;-80
2024/04/20 12:19:11;;;;;;;2.60;2.33;;;11.20;1.00;;;;;;5385383;26;20241;-82
2024/04/20 12:21:40;;;;;;;2.23;1.50;;;10.90;1.00;;;;;;5369964;26;20233;-80
2024/04/20 12:24:10;;;;;;;3.77;1.67;;;11.20;1.00;;;;;;5378258;26;20941;-82
2024/04/20 12:26:39;;;;;;;1.70;1.60;;;11.50;1.00;;;;;;5385016;26;20233;-82
2024/04/20 12:29:11;;;;;;;1.40;1.30;;;11.70;1.00;;;;;;5384742;26;20300;-82
2024/04/20 12:31:39;;;;;;;2.43;2.20;;;11.60;1.00;;;;;;5381242;26;20287;-81
2024/04/20 12:34:09;;;;;;;2.27;1.70;;;11.70;1.00;;;;;;5385124;26;20256;-80
2024/04/20 12:36:38;;;;;;;1.40;1.30;;;11.60;1.00;;;;;;5383828;26;20339;-81
2024/04/20 12:39:06;;;;;;;1.93;1.43;;;11.50;1.00;;;;;;5368365;26;20300;-81
2024/04/20 12:41:35;;;;;;;1.10;0.97;;;11.60;1.00;;;;;;5381709;26;20720;-80
2024/04/20 12:44:04;;;;;;;1.97;1.33;;;11.70;1.00;;;;;;5385205;26;20286;-82
2024/04/20 12:46:36;;;;;;;6.43;1.93;;;11.70;1.00;;;;;;5382063;26;20229;-81
2024/04/20 12:49:04;;;;;;;5.13;1.73;;;11.60;1.00;;;;;;5376507;26;20242;-82
2024/04/20 12:51:33;;;;;;;2.47;1.43;;;11.60;1.00;;;;;;5369100;26;20247;-81
2024/04/20 12:54:02;;;;;;;2.23;1.30;;;11.60;1.00;;;;;;5374065;26;20249;-81
2024/04/20 12:56:31;;;;;;;2.13;1.50;;;11.50;1.00;;;;;;5375594;26;20231;-80
2024/04/20 12:58:59;;;;;;;2.60;1.43;;;12.00;1.00;;;;;;5381958;26;20250;-80
2024/04/20 13:01:28;;;;;;;2.30;1.33;;;11.90;1.00;;;;;;5376598;26;20249;-81
2024/04/20 13:03:59;;;;;;;1.67;1.57;;;11.60;1.00;;;;;;5376527;26;20245;-79
2024/04/20 13:06:28;;;;;;;3.00;2.00;;;11.70;1.00;;;;;;5380050;26;20268;-82
2024/04/20 13:08:57;;;;;;;2.13;1.60;;;11.80;1.00;;;;;;5379895;26;20638;-83
2024/04/20 13:11:25;;;;;;;3.67;1.90;;;11.30;1.00;;;;;;5379290;26;20249;-81
2024/04/20 13:13:54;;;;;;;2.30;2.10;;;11.50;1.00;;;;;;5383800;26;20301;-80